createdAt,value
2023-02-13T00:02:16.836Z,102360.76
2023-02-13T00:07:20.518Z,102361.82
2023-02-13T00:12:25.372Z,102359.40
2023-02-13T00:17:29.145Z,102353.68
2023-02-13T00:22:37.367Z,102351.11
2023-02-13T00:27:41.054Z,102351.32
2023-02-13T00:32:44.670Z,102346.04
2023-02-13T00:37:49.208Z,102344.69
2023-02-13T00:43:17.987Z,102349.60
2023-02-13T00:48:22.778Z,102353.77
2023-02-13T00:53:27.138Z,102355.98
2023-02-13T00:58:34.050Z,102352.58
2023-02-13T01:03:38.006Z,102351.93
2023-02-13T01:08:43.409Z,102347.80
2023-02-13T01:13:47.221Z,102349.05
2023-02-13T01:18:51.020Z,102344.45
2023-02-13T01:23:54.762Z,102341.45
2023-02-13T01:28:58.642Z,102344.11
2023-02-13T01:34:02.882Z,102339.30
2023-02-13T01:39:07.940Z,102335.20
2023-02-13T01:44:49.257Z,102336.73
2023-02-13T01:50:05.522Z,102334.30
2023-02-13T01:55:11.651Z,102328.84
2023-02-13T02:00:17.963Z,102327.63
2023-02-13T02:05:27.953Z,102320.39
2023-02-13T02:10:32.985Z,102311.77
2023-02-13T02:15:37.308Z,102312.64
2023-02-13T02:21:20.129Z,102311.52
2023-02-13T02:26:51.659Z,102309.98
2023-02-13T02:32:08.839Z,102307.75
2023-02-13T02:37:31.332Z,102306.61
2023-02-13T02:42:53.778Z,102309.20
2023-02-13T02:48:26.701Z,102303.95
2023-02-13T02:54:48.211Z,102310.65
2023-02-13T03:00:16.358Z,102308.30
2023-02-13T03:05:43.744Z,102310.52
2023-02-13T03:11:06.247Z,102314.07
2023-02-13T03:16:41.418Z,102313.52
2023-02-13T03:22:09.676Z,102308.36
2023-02-13T03:28:07.636Z,102299.02
2023-02-13T03:33:37.383Z,102302.10
2023-02-13T03:39:07.963Z,102304.59
2023-02-13T03:44:21.371Z,102312.19
2023-02-13T03:49:47.954Z,102312.52
2023-02-13T03:55:12.122Z,102313.27
2023-02-13T04:00:17.423Z,102315.86
2023-02-13T04:05:23.505Z,102311.95
2023-02-13T04:10:28.694Z,102312.07
2023-02-13T04:15:39.261Z,102310.80
2023-02-13T04:20:43.087Z,102303.55
2023-02-13T04:25:53.229Z,102294.58
2023-02-13T04:30:58.098Z,102303.38
2023-02-13T04:36:02.046Z,102295.97
2023-02-13T04:41:05.916Z,102295.19
2023-02-13T04:46:09.636Z,102297.60
2023-02-13T04:51:13.705Z,102296.30
2023-02-13T04:56:19.640Z,102292.58
2023-02-13T05:01:23.779Z,102287.01
2023-02-13T05:06:27.487Z,102277.52
2023-02-13T05:11:31.176Z,102274.92
2023-02-13T05:16:34.924Z,102277.80
2023-02-13T05:21:58.565Z,102278.44
2023-02-13T05:27:02.502Z,102282.36
2023-02-13T05:32:09.859Z,102285.82
2023-02-13T05:37:13.811Z,102281.73
2023-02-13T05:42:17.646Z,102279.32
2023-02-13T05:47:21.344Z,102285.66
2023-02-13T05:52:25.325Z,102285.14
2023-02-13T05:57:28.995Z,102289.06
2023-02-13T06:02:33.264Z,102294.23
2023-02-13T06:07:40.522Z,102298.56
2023-02-13T06:12:44.347Z,102292.23
2023-02-13T06:17:48.094Z,102297.80
2023-02-13T06:22:52.502Z,102302.19
2023-02-13T06:27:56.192Z,102302.86
2023-02-13T06:33:00.093Z,102305.04
2023-02-13T06:38:04.838Z,102315.26
2023-02-13T06:43:09.505Z,102316.39
2023-02-13T06:48:13.751Z,102319.04
2023-02-13T06:53:19.820Z,102319.13
2023-02-13T06:58:25.470Z,102321.58
2023-02-13T07:03:29.329Z,102318.98
2023-02-13T07:08:33.265Z,102324.22
2023-02-13T07:13:38.577Z,102322.21
2023-02-13T07:18:42.639Z,102319.13
2023-02-13T07:23:46.414Z,102315.23
2023-02-13T07:28:56.956Z,102311.66
2023-02-13T07:34:09.757Z,102309.25
2023-02-13T07:39:14.479Z,102306.92
2023-02-13T07:44:18.694Z,102307.10
2023-02-13T07:49:24.258Z,102308.80
2023-02-13T07:54:28.107Z,102312.64
2023-02-13T07:59:31.927Z,102309.25
2023-02-13T08:04:35.713Z,102310.89
2023-02-13T08:09:58.157Z,102311.67
2023-02-13T08:15:02.331Z,102315.81
2023-02-13T08:20:11.015Z,102315.97
2023-02-13T08:25:15.112Z,102314.83
2023-02-13T08:30:19.371Z,102312.35
2023-02-13T08:35:27.872Z,102313.14
2023-02-13T08:40:35.605Z,102314.27
2023-02-13T08:45:43.664Z,102311.30
2023-02-13T08:50:47.651Z,102313.71
2023-02-13T08:55:57.885Z,102308.77
2023-02-13T09:01:05.918Z,102307.66
2023-02-13T09:06:09.869Z,102312.85
2023-02-13T09:11:17.510Z,102319.27
2023-02-13T09:16:30.867Z,102322.40
2023-02-13T09:21:48.741Z,102328.41
2023-02-13T09:26:52.452Z,102356.80
2023-02-13T09:31:56.468Z,102358.43
2023-02-13T09:37:00.561Z,102361.14
2023-02-13T09:42:08.821Z,102361.40
2023-02-13T09:47:42.323Z,102363.67
2023-02-13T09:52:47.609Z,102366.30
2023-02-13T09:58:06.363Z,102369.10
2023-02-13T10:03:20.338Z,102370.27
2023-02-13T10:08:50.461Z,102362.73
2023-02-13T10:14:09.045Z,102365.63
2023-02-13T10:19:22.485Z,102363.76
2023-02-13T10:25:14.632Z,102365.17
2023-02-13T10:30:30.768Z,102355.12
2023-02-13T10:42:35.706Z,102349.88
2023-02-13T10:48:12.114Z,102343.80
2023-02-13T10:53:54.224Z,102346.75
2023-02-13T10:59:33.718Z,102336.55
2023-02-13T11:04:37.561Z,102333.96
2023-02-13T11:09:43.755Z,102330.30
2023-02-13T11:21:40.623Z,102317.37
2023-02-13T11:27:02.764Z,102308.81
2023-02-13T11:32:15.575Z,102308.98
2023-02-13T11:37:21.331Z,102311.18
2023-02-13T11:42:33.126Z,102302.77
2023-02-13T11:47:38.721Z,102308.11
2023-02-13T11:52:56.913Z,102311.97
2023-02-13T11:58:23.372Z,102309.73
2023-02-13T12:03:30.289Z,102317.20
2023-02-13T12:08:37.269Z,102323.69
2023-02-13T12:13:42.858Z,102322.98
2023-02-13T12:18:50.148Z,102322.29
2023-02-13T12:24:39.331Z,102320.52
2023-02-13T12:30:12.559Z,102312.52
2023-02-13T12:36:09.540Z,102299.56
2023-02-13T12:41:27.397Z,102289.11
2023-02-13T12:46:33.526Z,102288.67
2023-02-13T12:52:21.709Z,102293.31
2023-02-13T12:57:51.503Z,102296.80
2023-02-13T13:03:34.598Z,102293.81
2023-02-13T13:08:56.307Z,102283.36
2023-02-13T13:14:14.711Z,102278.92
2023-02-13T13:19:49.754Z,102274.67
2023-02-13T13:25:02.686Z,102287.33
2023-02-13T13:30:26.067Z,102296.46
2023-02-13T13:35:31.222Z,102297.64
2023-02-13T13:40:47.504Z,102295.23
2023-02-13T13:46:41.883Z,102281.59
2023-02-13T13:51:45.957Z,102275.47
2023-02-13T13:57:13.752Z,102277.61
2023-02-13T14:02:18.470Z,102268.73
2023-02-13T14:07:24.770Z,102259.92
2023-02-13T14:12:37.088Z,102270.80
2023-02-13T14:17:46.770Z,102273.60
2023-02-13T14:22:50.779Z,102264.49
2023-02-13T14:28:03.062Z,102261.59
2023-02-13T14:33:09.707Z,102251.19
2023-02-13T14:38:25.398Z,102245.93
2023-02-13T14:43:52.532Z,102237.49
2023-02-13T14:49:36.764Z,102225.11
2023-02-13T14:54:48.134Z,102218.95
2023-02-13T15:00:00.246Z,102225.18
2023-02-13T15:05:20.980Z,102213.67
2023-02-13T15:10:55.721Z,102198.80
2023-02-13T15:16:05.651Z,102197.30
2023-02-13T15:21:33.569Z,102203.48
2023-02-13T15:26:38.282Z,102208.99
2023-02-13T15:31:42.753Z,102209.22
2023-02-13T15:36:50.762Z,102212.18
2023-02-13T15:42:00.070Z,102208.09
2023-02-13T15:47:24.504Z,102212.55
2023-02-13T15:52:49.826Z,102202.38
2023-02-13T15:57:58.986Z,102205.05
2023-02-13T16:03:05.839Z,102205.89
2023-02-13T16:08:54.788Z,102199.11
2023-02-13T16:14:26.109Z,102200.09
2023-02-13T16:19:38.187Z,102206.73
2023-02-13T16:24:50.013Z,102197.16
2023-02-13T16:30:05.278Z,102187.33
2023-02-13T16:35:20.002Z,102201.75
2023-02-13T16:40:43.881Z,102202.13
2023-02-13T16:45:51.651Z,102204.98
2023-02-13T16:50:58.270Z,102209.98
2023-02-13T16:56:12.578Z,102193.42
2023-02-13T17:01:19.063Z,102195.92
2023-02-13T17:06:26.948Z,102193.84
2023-02-13T17:16:57.628Z,102185.14
2023-02-13T17:22:04.350Z,102186.27
2023-02-13T17:27:11.490Z,102184.65
2023-02-13T17:32:28.193Z,102170.35
2023-02-13T17:37:33.874Z,102184.14
2023-02-13T17:42:38.975Z,102179.69
2023-02-13T17:47:46.130Z,102187.01
2023-02-13T17:52:53.125Z,102195.94
2023-02-13T17:58:07.642Z,102188.29
2023-02-13T18:03:17.215Z,102186.70
2023-02-13T18:08:22.425Z,102176.26
2023-02-13T18:13:28.230Z,102172.71
2023-02-13T18:18:36.108Z,102168.64
2023-02-13T18:23:41.154Z,102159.79
2023-02-13T18:28:47.878Z,102181.80
2023-02-13T18:33:55.073Z,102173.17
2023-02-13T18:39:04.062Z,102170.88
2023-02-13T18:44:23.364Z,102174.45
2023-02-13T18:49:33.183Z,102171.46
2023-02-13T18:54:40.556Z,102173.67
2023-02-13T18:59:49.217Z,102166.25
2023-02-13T19:04:56.301Z,102171.55
2023-02-13T19:10:09.469Z,102188.13
2023-02-13T19:15:17.662Z,102191.55
2023-02-13T19:20:24.505Z,102204.87
2023-02-13T19:25:30.517Z,102212.85
2023-02-13T19:30:39.051Z,102203.86
2023-02-13T19:35:59.243Z,102212.52
2023-02-13T19:41:10.521Z,102213.75
2023-02-13T19:46:30.255Z,102211.45
2023-02-13T19:51:36.679Z,102216.46
2023-02-13T19:56:45.655Z,102220.36
2023-02-13T20:01:53.218Z,102228.69
2023-02-13T20:07:08.236Z,102231.66
2023-02-13T20:12:14.916Z,102236.58
2023-02-13T20:17:28.154Z,102242.73
2023-02-13T20:22:34.420Z,102248.30
2023-02-13T20:27:43.191Z,102251.61
2023-02-13T20:32:53.546Z,102257.99
2023-02-13T20:38:01.067Z,102263.44
2023-02-13T20:43:07.874Z,102269.36
2023-02-13T20:48:20.875Z,102274.36
2023-02-13T20:53:37.365Z,102286.10
2023-02-13T20:58:48.034Z,102294.88
2023-02-13T21:03:59.638Z,102300.60
2023-02-13T21:09:07.193Z,102303.10
2023-02-13T21:14:15.479Z,102305.04
2023-02-13T21:19:24.997Z,102303.04
2023-02-13T21:24:30.285Z,102304.54
2023-02-13T21:29:34.891Z,102303.23
2023-02-13T21:34:43.965Z,102304.38
2023-02-13T21:39:52.372Z,102307.92
2023-02-13T21:44:58.309Z,102312.38
2023-02-13T21:50:07.014Z,102308.33
2023-02-13T21:55:11.351Z,102308.95
2023-02-13T22:00:16.223Z,102312.16
2023-02-13T22:05:20.257Z,102317.45
2023-02-13T22:10:26.769Z,102319.57
2023-02-13T22:15:30.570Z,102319.28
2023-02-13T22:20:35.998Z,102323.20
2023-02-13T22:25:42.704Z,102325.88
2023-02-13T22:30:46.611Z,102325.28
2023-02-13T22:35:51.760Z,102329.16
2023-02-13T22:40:55.614Z,102325.66
2023-02-13T22:46:07.221Z,102329.75
2023-02-13T22:51:12.107Z,102325.64
2023-02-13T22:56:16.436Z,102315.21
2023-02-13T23:01:21.959Z,102315.11
2023-02-13T23:06:27.321Z,102315.90
2023-02-13T23:11:50.044Z,102312.86
2023-02-13T23:17:15.500Z,102309.80
2023-02-13T23:22:20.669Z,102307.99
2023-02-13T23:27:25.290Z,102310.13
2023-02-13T23:32:29.589Z,102314.27
2023-02-13T23:37:34.829Z,102316.04
2023-02-13T23:42:39.264Z,102305.22
2023-02-13T23:47:43.854Z,102314.56
2023-02-13T23:52:48.812Z,102313.41
2023-02-13T23:57:52.816Z,102311.98
